地図

経路データ

SID SEASON NUMBER BASIN SUBBASIN NAME ISO_TIME NATURE LAT LON WMO_WIND WMO_PRES WMO_AGENCY TRACK_TYPE DIST2LAND LANDFALL IFLAG USA_AGENCY USA_ATCF_ID USA_LAT USA_LON USA_RECORD USA_STATUS USA_WIND USA_PRES USA_SSHS USA_R34_NE USA_R34_SE USA_R34_SW USA_R34_NW USA_R50_NE USA_R50_SE USA_R50_SW USA_R50_NW USA_R64_NE USA_R64_SE USA_R64_SW USA_R64_NW USA_POCI USA_ROCI USA_RMW USA_EYE TOKYO_LAT TOKYO_LON TOKYO_GRADE TOKYO_WIND TOKYO_PRES TOKYO_R50_DIR TOKYO_R50_LONG TOKYO_R50_SHORT TOKYO_R30_DIR TOKYO_R30_LONG TOKYO_R30_SHORT TOKYO_LAND CMA_LAT CMA_LON CMA_CAT CMA_WIND CMA_PRES HKO_LAT HKO_LON HKO_CAT HKO_WIND HKO_PRES NEWDELHI_LAT NEWDELHI_LON NEWDELHI_GRADE NEWDELHI_WIND NEWDELHI_PRES NEWDELHI_CI NEWDELHI_DP NEWDELHI_POCI REUNION_LAT REUNION_LON REUNION_TYPE REUNION_WIND REUNION_PRES REUNION_TNUM REUNION_CI REUNION_RMW REUNION_R34_NE REUNION_R34_SE REUNION_R34_SW REUNION_R34_NW REUNION_R50_NE REUNION_R50_SE REUNION_R50_SW REUNION_R50_NW REUNION_R64_NE REUNION_R64_SE REUNION_R64_SW REUNION_R64_NW BOM_LAT BOM_LON BOM_TYPE BOM_WIND BOM_PRES BOM_TNUM BOM_CI BOM_RMW BOM_R34_NE BOM_R34_SE BOM_R34_SW BOM_R34_NW BOM_R50_NE BOM_R50_SE BOM_R50_SW BOM_R50_NW BOM_R64_NE BOM_R64_SE BOM_R64_SW BOM_R64_NW BOM_ROCI BOM_POCI BOM_EYE BOM_POS_METHOD BOM_PRES_METHOD NADI_LAT NADI_LON NADI_CAT NADI_WIND NADI_PRES WELLINGTON_LAT WELLINGTON_LON WELLINGTON_WIND WELLINGTON_PRES DS824_LAT DS824_LON DS824_STAGE DS824_WIND DS824_PRES TD9636_LAT TD9636_LON TD9636_STAGE TD9636_WIND TD9636_PRES TD9635_LAT TD9635_LON TD9635_WIND TD9635_PRES TD9635_ROCI NEUMANN_LAT NEUMANN_LON NEUMANN_CLASS NEUMANN_WIND NEUMANN_PRES MLC_LAT MLC_LON MLC_CLASS MLC_WIND MLC_PRES USA_GUST BOM_GUST BOM_GUST_PER REUNION_GUST REUNION_GUST_PER USA_SEAHGT USA_SEARAD_NE USA_SEARAD_SE USA_SEARAD_SW USA_SEARAD_NW STORM_SPEED STORM_DIR
1946284N16123 1946 60 WP MM NOT_NAMED 1946-10-11 00:00:00 NR 16.2000 123.100 main 96 57 __________O___ -1 16.2000 123.100 4 6 303
1946284N16123 1946 60 WP MM NOT_NAMED 1946-10-11 03:00:00 NR 16.3690 122.828 main 57 33 __________P___ -1 16.3690 122.828 4 6 303
1946284N16123 1946 60 WP MM NOT_NAMED 1946-10-11 06:00:00 NR 16.5403 122.555 main 33 0 __________P___ -1 16.5403 122.555 4 6 303
1946284N16123 1946 60 WP MM NOT_NAMED 1946-10-11 09:00:00 NR 16.7164 122.280 main 0 0 __________P___ -1 16.7164 122.280 4 6 304
1946284N16123 1946 60 WP MM NOT_NAMED 1946-10-11 12:00:00 NR 16.9000 122.000 main 0 0 __________O___ -1 16.9000 122.000 4 7 305
1946284N16123 1946 60 WP MM NOT_NAMED 1946-10-11 15:00:00 NR 17.0926 121.715 main 0 0 __________P___ -1 17.0926 121.715 4 7 305
1946284N16123 1946 60 WP MM NOT_NAMED 1946-10-11 18:00:00 NR 17.2922 121.422 main 0 0 __________P___ -1 17.2922 121.422 4 7 305
1946284N16123 1946 60 WP MM NOT_NAMED 1946-10-11 21:00:00 NR 17.4957 121.118 main 0 0 __________P___ -1 17.4957 121.118 4 7 305
1946284N16123 1946 60 WP MM NOT_NAMED 1946-10-12 00:00:00 NR 17.7000 120.800 main 0 0 __________O___ -1 17.7000 120.800 4 7 303
1946284N16123 1946 60 WP MM NOT_NAMED 1946-10-12 03:00:00 NR 17.8958 120.468 main 0 0 __________P___ -1 17.8958 120.468 4 8 301
1946284N16123 1946 60 WP MM NOT_NAMED 1946-10-12 06:00:00 NR 18.0923 120.122 main 42 42 __________P___ -1 18.0923 120.122 4 8 301
1946284N16123 1946 60 WP MM NOT_NAMED 1946-10-12 09:00:00 NR 18.2927 119.765 main 77 77 __________P___ -1 18.2927 119.765 4 8 301
1946284N16123 1946 60 WP MM NOT_NAMED 1946-10-12 12:00:00 NR 18.5000 119.400 main 124 124 __________O___ -1 18.5000 119.400 4 8 300
1946284N16123 1946 60 WP MM NOT_NAMED 1946-10-12 15:00:00 NR 18.6974 119.032 main 171 171 __________P___ -1 18.6974 119.032 4 8 300
1946284N16123 1946 60 WP MM NOT_NAMED 1946-10-12 18:00:00 NR 18.9048 118.657 main 207 207 __________P___ -1 18.9048 118.657 4 8 302
1946284N16123 1946 60 WP MM NOT_NAMED 1946-10-12 21:00:00 NR 19.1348 118.278 main 254 254 __________P___ -1 19.1348 118.278 4 9 305
1946284N16123 1946 60 WP MM NOT_NAMED 1946-10-13 00:00:00 NR 19.4000 117.900 main 305 305 __________O___ -1 19.4000 117.900 4 10 306
1946284N16123 1946 60 WP MM NOT_NAMED 1946-10-13 03:00:00 NR 19.6982 117.469 main 356 329 __________P___ -1 19.6982 117.469 4 10 308
1946284N16123 1946 60 WP MM NOT_NAMED 1946-10-13 06:00:00 NR 20.0331 117.046 main 326 273 __________P___ -1 20.0331 117.046 4 10 313
1946284N16123 1946 60 WP MM NOT_NAMED 1946-10-13 09:00:00 NR 20.4014 116.675 main 273 221 __________P___ -1 20.4014 116.675 4 10 322
1946284N16123 1946 60 WP MM NOT_NAMED 1946-10-13 12:00:00 NR 20.8000 116.400 main 221 175 __________O___ -1 20.8000 116.400 4 9 334
1946284N16123 1946 60 WP MM NOT_NAMED 1946-10-13 15:00:00 NR 21.2256 116.251 main 175 129 __________P___ -1 21.2256 116.251 4 9 348
1946284N16123 1946 60 WP MM NOT_NAMED 1946-10-13 18:00:00 NR 21.6720 116.208 main 119 78 __________P___ -1 21.6720 116.208 4 9 358
1946284N16123 1946 60 WP MM NOT_NAMED 1946-10-13 21:00:00 NR 22.1325 116.236 main 78 30 __________P___ -1 22.1325 116.236 4 9 5
1946284N16123 1946 60 WP MM NOT_NAMED 1946-10-14 00:00:00 NR 22.6000 116.300 main 30 __________O___ -1 22.6000 116.300 7 9 7

デジタル台風データ・検索

IBTrACS Databaseについて

本データベースは、米国NOAAが公開する1842年以降の世界の熱帯低気圧のベストトラックデータアーカイブInternational Best Track Archive for Climate Stewardship (IBTrACS)を、ウェブで閲覧しやすい形式に変換したものです。

最終更新日:2021-12-06